sensor_id;sensor_type;location;lat;lon;timestamp;temperature;humidity
43151;DHT22;28755;51.478;5.702;2023-05-10T00:01:54;13.60;99.90
43151;DHT22;28755;51.478;5.702;2023-05-10T00:04:19;13.60;99.90
43151;DHT22;28755;51.478;5.702;2023-05-10T00:06:45;13.60;99.90
43151;DHT22;28755;51.478;5.702;2023-05-10T00:09:11;13.60;99.90
43151;DHT22;28755;51.478;5.702;2023-05-10T00:11:37;13.60;99.90
43151;DHT22;28755;51.478;5.702;2023-05-10T00:14:02;13.60;99.90
43151;DHT22;28755;51.478;5.702;2023-05-10T00:16:28;13.70;99.90
43151;DHT22;28755;51.478;5.702;2023-05-10T00:18:54;13.60;99.90
43151;DHT22;28755;51.478;5.702;2023-05-10T00:21:19;13.60;99.90
43151;DHT22;28755;51.478;5.702;2023-05-10T00:23:45;13.60;99.90
43151;DHT22;28755;51.478;5.702;2023-05-10T00:26:11;13.60;99.90
43151;DHT22;28755;51.478;5.702;2023-05-10T00:28:37;13.60;99.90
43151;DHT22;28755;51.478;5.702;2023-05-10T00:31:02;13.60;99.90
43151;DHT22;28755;51.478;5.702;2023-05-10T00:33:28;13.60;99.90
43151;DHT22;28755;51.478;5.702;2023-05-10T00:35:53;13.60;99.90
43151;DHT22;28755;51.478;5.702;2023-05-10T00:38:19;13.50;99.90
43151;DHT22;28755;51.478;5.702;2023-05-10T00:40:44;13.60;99.90
43151;DHT22;28755;51.478;5.702;2023-05-10T00:43:10;13.60;99.90
43151;DHT22;28755;51.478;5.702;2023-05-10T00:45:36;13.70;99.90
43151;DHT22;28755;51.478;5.702;2023-05-10T00:48:02;13.60;99.90
43151;DHT22;28755;51.478;5.702;2023-05-10T00:50:29;13.60;99.90
43151;DHT22;28755;51.478;5.702;2023-05-10T00:52:56;13.60;99.90
43151;DHT22;28755;51.478;5.702;2023-05-10T00:55:22;13.40;99.90
43151;DHT22;28755;51.478;5.702;2023-05-10T00:57:49;13.40;99.90
43151;DHT22;28755;51.478;5.702;2023-05-10T01:00:15;13.40;99.90
43151;DHT22;28755;51.478;5.702;2023-05-10T01:02:44;13.40;99.90
43151;DHT22;28755;51.478;5.702;2023-05-10T01:05:10;13.40;99.90
43151;DHT22;28755;51.478;5.702;2023-05-10T01:07:36;13.40;99.90
43151;DHT22;28755;51.478;5.702;2023-05-10T01:10:02;13.40;99.90
43151;DHT22;28755;51.478;5.702;2023-05-10T01:12:28;13.40;99.90
43151;DHT22;28755;51.478;5.702;2023-05-10T01:14:54;13.40;99.90
43151;DHT22;28755;51.478;5.702;2023-05-10T01:17:21;13.40;99.90
43151;DHT22;28755;51.478;5.702;2023-05-10T01:19:47;13.40;99.90
43151;DHT22;28755;51.478;5.702;2023-05-10T01:33:46;13.30;99.90
43151;DHT22;28755;51.478;5.702;2023-05-10T01:36:31;13.30;99.90
43151;DHT22;28755;51.478;5.702;2023-05-10T01:39:16;13.30;99.90
43151;DHT22;28755;51.478;5.702;2023-05-10T01:41:55;13.40;99.90
43151;DHT22;28755;51.478;5.702;2023-05-10T01:44:37;13.40;99.90
43151;DHT22;28755;51.478;5.702;2023-05-10T01:47:12;13.30;99.90
43151;DHT22;28755;51.478;5.702;2023-05-10T01:49:47;13.40;99.90
43151;DHT22;28755;51.478;5.702;2023-05-10T01:52:18;13.40;99.90
43151;DHT22;28755;51.478;5.702;2023-05-10T01:54:55;13.40;99.90
43151;DHT22;28755;51.478;5.702;2023-05-10T01:57:22;13.50;99.90
43151;DHT22;28755;51.478;5.702;2023-05-10T01:59:51;13.50;99.90
43151;DHT22;28755;51.478;5.702;2023-05-10T02:02:20;13.50;99.90
43151;DHT22;28755;51.478;5.702;2023-05-10T02:04:46;13.60;99.90
43151;DHT22;28755;51.478;5.702;2023-05-10T02:07:13;13.50;99.90
43151;DHT22;28755;51.478;5.702;2023-05-10T02:09:40;13.60;99.90
43151;DHT22;28755;51.478;5.702;2023-05-10T02:12:07;13.60;99.90
43151;DHT22;28755;51.478;5.702;2023-05-10T02:14:36;13.60;99.90
43151;DHT22;28755;51.478;5.702;2023-05-10T02:17:03;13.60;99.90
43151;DHT22;28755;51.478;5.702;2023-05-10T02:19:31;13.60;99.90
43151;DHT22;28755;51.478;5.702;2023-05-10T02:21:58;13.60;99.90
43151;DHT22;28755;51.478;5.702;2023-05-10T02:24:25;13.60;99.90
43151;DHT22;28755;51.478;5.702;2023-05-10T02:26:51;13.60;99.90
43151;DHT22;28755;51.478;5.702;2023-05-10T02:29:19;13.60;99.90
43151;DHT22;28755;51.478;5.702;2023-05-10T02:31:45;13.70;99.90
43151;DHT22;28755;51.478;5.702;2023-05-10T02:34:12;13.60;99.90
43151;DHT22;28755;51.478;5.702;2023-05-10T02:36:39;13.60;99.90
43151;DHT22;28755;51.478;5.702;2023-05-10T02:39:06;13.70;99.90
43151;DHT22;28755;51.478;5.702;2023-05-10T02:41:35;13.70;99.90
43151;DHT22;28755;51.478;5.702;2023-05-10T02:44:02;13.70;99.90
43151;DHT22;28755;51.478;5.702;2023-05-10T02:46:29;13.60;99.90
43151;DHT22;28755;51.478;5.702;2023-05-10T02:48:54;13.70;99.90
43151;DHT22;28755;51.478;5.702;2023-05-10T02:51:21;13.60;99.90
43151;DHT22;28755;51.478;5.702;2023-05-10T02:53:50;13.60;99.90
43151;DHT22;28755;51.478;5.702;2023-05-10T02:56:40;13.60;99.90
43151;DHT22;28755;51.478;5.702;2023-05-10T02:59:07;13.60;99.90
43151;DHT22;28755;51.478;5.702;2023-05-10T03:01:33;13.70;99.90
43151;DHT22;28755;51.478;5.702;2023-05-10T03:03:59;13.70;99.90
43151;DHT22;28755;51.478;5.702;2023-05-10T03:06:25;13.70;99.90
43151;DHT22;28755;51.478;5.702;2023-05-10T03:08:51;13.80;99.90
43151;DHT22;28755;51.478;5.702;2023-05-10T03:11:53;13.80;99.90
43151;DHT22;28755;51.478;5.702;2023-05-10T03:14:48;13.70;99.90
43151;DHT22;28755;51.478;5.702;2023-05-10T03:17:29;13.70;99.90
43151;DHT22;28755;51.478;5.702;2023-05-10T03:19:58;13.70;99.90
43151;DHT22;28755;51.478;5.702;2023-05-10T03:22:36;13.70;99.90
43151;DHT22;28755;51.478;5.702;2023-05-10T03:25:05;13.70;99.90
43151;DHT22;28755;51.478;5.702;2023-05-10T03:27:32;13.60;99.90
43151;DHT22;28755;51.478;5.702;2023-05-10T03:29:59;13.60;99.90
43151;DHT22;28755;51.478;5.702;2023-05-10T03:32:28;13.60;99.90
43151;DHT22;28755;51.478;5.702;2023-05-10T03:34:54;13.60;99.90
43151;DHT22;28755;51.478;5.702;2023-05-10T03:37:19;13.60;99.90
43151;DHT22;28755;51.478;5.702;2023-05-10T03:39:45;13.60;99.90
43151;DHT22;28755;51.478;5.702;2023-05-10T03:42:11;13.60;99.90
43151;DHT22;28755;51.478;5.702;2023-05-10T03:44:38;13.60;99.90
43151;DHT22;28755;51.478;5.702;2023-05-10T03:47:04;13.60;99.90
43151;DHT22;28755;51.478;5.702;2023-05-10T03:49:29;13.60;99.90
43151;DHT22;28755;51.478;5.702;2023-05-10T03:51:55;13.60;99.90
43151;DHT22;28755;51.478;5.702;2023-05-10T03:54:21;13.60;99.90
43151;DHT22;28755;51.478;5.702;2023-05-10T03:56:46;13.60;99.90
43151;DHT22;28755;51.478;5.702;2023-05-10T03:59:13;13.60;99.90
43151;DHT22;28755;51.478;5.702;2023-05-10T04:01:39;13.60;99.90
43151;DHT22;28755;51.478;5.702;2023-05-10T04:04:04;13.70;99.90
43151;DHT22;28755;51.478;5.702;2023-05-10T04:06:30;13.60;99.90
43151;DHT22;28755;51.478;5.702;2023-05-10T04:08:56;13.50;99.90
43151;DHT22;28755;51.478;5.702;2023-05-10T04:11:24;13.60;99.90
43151;DHT22;28755;51.478;5.702;2023-05-10T04:13:50;13.60;99.90
43151;DHT22;28755;51.478;5.702;2023-05-10T04:16:15;13.60;99.90
43151;DHT22;28755;51.478;5.702;2023-05-10T04:18:41;13.60;99.90
43151;DHT22;28755;51.478;5.702;2023-05-10T04:21:13;13.50;99.90
43151;DHT22;28755;51.478;5.702;2023-05-10T04:23:39;13.50;99.90
43151;DHT22;28755;51.478;5.702;2023-05-10T04:26:05;13.50;99.90
43151;DHT22;28755;51.478;5.702;2023-05-10T04:28:30;13.60;99.90
43151;DHT22;28755;51.478;5.702;2023-05-10T04:31:07;13.60;99.90
43151;DHT22;28755;51.478;5.702;2023-05-10T04:33:32;13.50;99.90
43151;DHT22;28755;51.478;5.702;2023-05-10T04:35:59;13.50;99.90
43151;DHT22;28755;51.478;5.702;2023-05-10T04:38:25;13.50;99.90
43151;DHT22;28755;51.478;5.702;2023-05-10T04:40:51;13.50;99.90
43151;DHT22;28755;51.478;5.702;2023-05-10T04:43:16;13.50;99.90
43151;DHT22;28755;51.478;5.702;2023-05-10T04:45:42;13.50;99.90
43151;DHT22;28755;51.478;5.702;2023-05-10T04:48:07;13.60;99.90
43151;DHT22;28755;51.478;5.702;2023-05-10T04:54:01;13.50;99.90
43151;DHT22;28755;51.478;5.702;2023-05-10T04:56:26;13.50;99.90
43151;DHT22;28755;51.478;5.702;2023-05-10T04:58:52;13.50;99.90
43151;DHT22;28755;51.478;5.702;2023-05-10T05:01:17;13.50;99.90
43151;DHT22;28755;51.478;5.702;2023-05-10T05:03:43;13.50;99.90
43151;DHT22;28755;51.478;5.702;2023-05-10T05:06:09;13.50;99.90
43151;DHT22;28755;51.478;5.702;2023-05-10T05:08:34;13.40;99.90
43151;DHT22;28755;51.478;5.702;2023-05-10T05:11:00;13.50;99.90
43151;DHT22;28755;51.478;5.702;2023-05-10T05:13:25;13.40;99.90
43151;DHT22;28755;51.478;5.702;2023-05-10T05:15:51;13.50;99.90
43151;DHT22;28755;51.478;5.702;2023-05-10T05:18:17;13.60;99.90
43151;DHT22;28755;51.478;5.702;2023-05-10T05:20:42;13.50;99.90
43151;DHT22;28755;51.478;5.702;2023-05-10T05:23:08;13.60;99.90
43151;DHT22;28755;51.478;5.702;2023-05-10T05:25:33;13.50;99.90
43151;DHT22;28755;51.478;5.702;2023-05-10T05:27:59;13.40;99.90
43151;DHT22;28755;51.478;5.702;2023-05-10T05:30:25;13.40;99.90
43151;DHT22;28755;51.478;5.702;2023-05-10T05:32:50;13.40;99.90
43151;DHT22;28755;51.478;5.702;2023-05-10T05:35:16;13.40;99.90
43151;DHT22;28755;51.478;5.702;2023-05-10T05:37:42;13.40;99.90
43151;DHT22;28755;51.478;5.702;2023-05-10T05:40:08;13.40;99.90
43151;DHT22;28755;51.478;5.702;2023-05-10T05:42:33;13.40;99.90
43151;DHT22;28755;51.478;5.702;2023-05-10T05:44:59;13.40;99.90
43151;DHT22;28755;51.478;5.702;2023-05-10T05:47:25;13.50;99.90
43151;DHT22;28755;51.478;5.702;2023-05-10T05:49:51;13.50;99.90
43151;DHT22;28755;51.478;5.702;2023-05-10T05:52:17;13.70;99.90
43151;DHT22;28755;51.478;5.702;2023-05-10T05:54:42;13.70;99.90
43151;DHT22;28755;51.478;5.702;2023-05-10T05:57:08;13.70;99.90
43151;DHT22;28755;51.478;5.702;2023-05-10T05:59:34;13.80;99.90
43151;DHT22;28755;51.478;5.702;2023-05-10T06:02:00;13.80;99.90
43151;DHT22;28755;51.478;5.702;2023-05-10T06:04:25;13.70;99.90
43151;DHT22;28755;51.478;5.702;2023-05-10T06:06:51;13.80;99.90
43151;DHT22;28755;51.478;5.702;2023-05-10T06:09:17;13.80;99.90
43151;DHT22;28755;51.478;5.702;2023-05-10T06:11:42;13.90;99.90
43151;DHT22;28755;51.478;5.702;2023-05-10T06:14:08;13.90;99.90
43151;DHT22;28755;51.478;5.702;2023-05-10T06:16:34;14.00;99.90
43151;DHT22;28755;51.478;5.702;2023-05-10T06:18:59;14.00;99.90
43151;DHT22;28755;51.478;5.702;2023-05-10T06:21:25;14.10;99.90
43151;DHT22;28755;51.478;5.702;2023-05-10T06:23:51;14.10;99.90
43151;DHT22;28755;51.478;5.702;2023-05-10T06:26:16;14.00;99.90
43151;DHT22;28755;51.478;5.702;2023-05-10T06:28:42;14.10;99.90
43151;DHT22;28755;51.478;5.702;2023-05-10T06:31:08;14.00;99.90
43151;DHT22;28755;51.478;5.702;2023-05-10T06:33:34;14.00;99.90
43151;DHT22;28755;51.478;5.702;2023-05-10T06:36:00;14.00;99.90
43151;DHT22;28755;51.478;5.702;2023-05-10T06:38:25;13.90;99.90
43151;DHT22;28755;51.478;5.702;2023-05-10T06:40:51;13.80;99.90
43151;DHT22;28755;51.478;5.702;2023-05-10T06:43:17;13.90;99.90
43151;DHT22;28755;51.478;5.702;2023-05-10T06:45:42;13.80;99.90
43151;DHT22;28755;51.478;5.702;2023-05-10T06:48:08;13.90;99.90
43151;DHT22;28755;51.478;5.702;2023-05-10T06:50:34;13.80;99.90
43151;DHT22;28755;51.478;5.702;2023-05-10T06:53:00;13.80;99.90
43151;DHT22;28755;51.478;5.702;2023-05-10T06:55:27;13.80;99.90
43151;DHT22;28755;51.478;5.702;2023-05-10T06:57:53;13.80;99.90
43151;DHT22;28755;51.478;5.702;2023-05-10T07:00:18;13.90;99.90
43151;DHT22;28755;51.478;5.702;2023-05-10T07:02:45;13.90;99.90
43151;DHT22;28755;51.478;5.702;2023-05-10T07:05:10;13.90;99.90
43151;DHT22;28755;51.478;5.702;2023-05-10T07:07:37;13.90;99.90
43151;DHT22;28755;51.478;5.702;2023-05-10T07:10:02;14.00;99.90
43151;DHT22;28755;51.478;5.702;2023-05-10T07:12:28;14.10;99.90
43151;DHT22;28755;51.478;5.702;2023-05-10T07:14:54;14.10;99.90
43151;DHT22;28755;51.478;5.702;2023-05-10T07:17:19;14.10;99.90
43151;DHT22;28755;51.478;5.702;2023-05-10T07:19:45;14.10;99.90
43151;DHT22;28755;51.478;5.702;2023-05-10T07:22:10;14.10;99.90
43151;DHT22;28755;51.478;5.702;2023-05-10T07:24:37;14.10;99.90
43151;DHT22;28755;51.478;5.702;2023-05-10T07:27:02;14.10;99.90
43151;DHT22;28755;51.478;5.702;2023-05-10T07:29:28;14.10;99.90
43151;DHT22;28755;51.478;5.702;2023-05-10T07:31:54;14.20;99.90
43151;DHT22;28755;51.478;5.702;2023-05-10T07:34:19;14.10;99.90
43151;DHT22;28755;51.478;5.702;2023-05-10T07:36:45;14.10;99.90
43151;DHT22;28755;51.478;5.702;2023-05-10T07:39:11;14.10;99.90
43151;DHT22;28755;51.478;5.702;2023-05-10T07:41:36;14.10;99.90
43151;DHT22;28755;51.478;5.702;2023-05-10T07:44:03;14.10;99.90
43151;DHT22;28755;51.478;5.702;2023-05-10T07:46:29;14.20;99.90
43151;DHT22;28755;51.478;5.702;2023-05-10T07:48:55;14.20;99.90
43151;DHT22;28755;51.478;5.702;2023-05-10T07:51:20;14.30;99.90
43151;DHT22;28755;51.478;5.702;2023-05-10T07:53:46;14.30;99.90
43151;DHT22;28755;51.478;5.702;2023-05-10T07:56:28;14.40;99.90
43151;DHT22;28755;51.478;5.702;2023-05-10T07:58:58;14.40;99.90
43151;DHT22;28755;51.478;5.702;2023-05-10T08:01:25;14.40;99.90
43151;DHT22;28755;51.478;5.702;2023-05-10T08:03:51;14.30;99.90
43151;DHT22;28755;51.478;5.702;2023-05-10T08:06:19;14.30;99.90
43151;DHT22;28755;51.478;5.702;2023-05-10T08:08:46;14.30;99.90
43151;DHT22;28755;51.478;5.702;2023-05-10T08:11:17;14.30;99.90
43151;DHT22;28755;51.478;5.702;2023-05-10T08:13:44;14.20;99.90
43151;DHT22;28755;51.478;5.702;2023-05-10T08:16:10;14.20;99.90
43151;DHT22;28755;51.478;5.702;2023-05-10T08:18:35;14.20;99.90
43151;DHT22;28755;51.478;5.702;2023-05-10T08:21:01;14.20;99.90
43151;DHT22;28755;51.478;5.702;2023-05-10T08:23:26;14.10;99.90
43151;DHT22;28755;51.478;5.702;2023-05-10T08:25:52;14.10;99.90
43151;DHT22;28755;51.478;5.702;2023-05-10T08:28:17;14.10;99.90
43151;DHT22;28755;51.478;5.702;2023-05-10T08:30:43;14.20;99.90
43151;DHT22;28755;51.478;5.702;2023-05-10T08:33:09;14.20;99.90
43151;DHT22;28755;51.478;5.702;2023-05-10T08:35:34;14.10;99.90
43151;DHT22;28755;51.478;5.702;2023-05-10T08:38:00;14.10;99.90
43151;DHT22;28755;51.478;5.702;2023-05-10T08:40:26;14.10;99.90
43151;DHT22;28755;51.478;5.702;2023-05-10T08:43:12;14.10;99.90
43151;DHT22;28755;51.478;5.702;2023-05-10T08:45:42;14.10;99.90
43151;DHT22;28755;51.478;5.702;2023-05-10T08:48:09;14.10;99.90
43151;DHT22;28755;51.478;5.702;2023-05-10T08:50:39;14.00;99.90
43151;DHT22;28755;51.478;5.702;2023-05-10T08:53:11;14.10;99.90
43151;DHT22;28755;51.478;5.702;2023-05-10T08:55:37;14.10;99.90
43151;DHT22;28755;51.478;5.702;2023-05-10T08:58:04;14.20;99.90
43151;DHT22;28755;51.478;5.702;2023-05-10T09:00:31;14.20;99.90
43151;DHT22;28755;51.478;5.702;2023-05-10T09:02:58;14.20;99.90
43151;DHT22;28755;51.478;5.702;2023-05-10T09:05:24;14.30;99.90
43151;DHT22;28755;51.478;5.702;2023-05-10T09:07:49;14.30;99.90
43151;DHT22;28755;51.478;5.702;2023-05-10T09:10:15;14.30;99.90
43151;DHT22;28755;51.478;5.702;2023-05-10T09:12:41;14.40;99.90
43151;DHT22;28755;51.478;5.702;2023-05-10T09:15:09;14.40;99.90
43151;DHT22;28755;51.478;5.702;2023-05-10T09:17:36;14.40;99.90
43151;DHT22;28755;51.478;5.702;2023-05-10T09:20:04;14.50;99.90
43151;DHT22;28755;51.478;5.702;2023-05-10T09:22:33;14.60;99.90
43151;DHT22;28755;51.478;5.702;2023-05-10T09:25:13;14.50;99.90
43151;DHT22;28755;51.478;5.702;2023-05-10T09:27:45;14.60;99.90
43151;DHT22;28755;51.478;5.702;2023-05-10T09:30:25;14.80;99.90
43151;DHT22;28755;51.478;5.702;2023-05-10T09:32:51;14.70;99.90
43151;DHT22;28755;51.478;5.702;2023-05-10T09:35:19;14.80;99.90
43151;DHT22;28755;51.478;5.702;2023-05-10T09:37:47;14.90;99.90
43151;DHT22;28755;51.478;5.702;2023-05-10T09:40:15;15.10;99.90
43151;DHT22;28755;51.478;5.702;2023-05-10T09:43:00;15.10;99.90
43151;DHT22;28755;51.478;5.702;2023-05-10T09:45:28;15.70;99.90
43151;DHT22;28755;51.478;5.702;2023-05-10T09:47:55;16.70;99.90
43151;DHT22;28755;51.478;5.702;2023-05-10T09:50:22;17.20;99.90
43151;DHT22;28755;51.478;5.702;2023-05-10T09:52:51;17.10;99.90
43151;DHT22;28755;51.478;5.702;2023-05-10T09:55:22;17.70;99.90
43151;DHT22;28755;51.478;5.702;2023-05-10T09:57:49;18.00;99.90
43151;DHT22;28755;51.478;5.702;2023-05-10T10:00:23;17.80;99.90
43151;DHT22;28755;51.478;5.702;2023-05-10T10:02:55;17.10;99.90
43151;DHT22;28755;51.478;5.702;2023-05-10T10:05:27;16.90;99.90
43151;DHT22;28755;51.478;5.702;2023-05-10T10:07:53;16.50;99.90
43151;DHT22;28755;51.478;5.702;2023-05-10T10:10:18;16.40;99.90
43151;DHT22;28755;51.478;5.702;2023-05-10T10:12:46;16.30;99.90
43151;DHT22;28755;51.478;5.702;2023-05-10T10:15:12;16.50;99.90
43151;DHT22;28755;51.478;5.702;2023-05-10T10:17:38;16.70;99.90
43151;DHT22;28755;51.478;5.702;2023-05-10T10:20:05;17.30;99.90
43151;DHT22;28755;51.478;5.702;2023-05-10T10:22:31;18.20;99.90
43151;DHT22;28755;51.478;5.702;2023-05-10T10:24:57;18.80;99.90
43151;DHT22;28755;51.478;5.702;2023-05-10T10:30:43;17.40;99.90
43151;DHT22;28755;51.478;5.702;2023-05-10T10:33:49;17.30;99.90
43151;DHT22;28755;51.478;5.702;2023-05-10T10:36:16;17.20;99.90
43151;DHT22;28755;51.478;5.702;2023-05-10T10:41:31;16.90;99.90
43151;DHT22;28755;51.478;5.702;2023-05-10T10:52:22;16.30;99.90
43151;DHT22;28755;51.478;5.702;2023-05-10T10:57:25;16.40;99.90
43151;DHT22;28755;51.478;5.702;2023-05-10T10:59:53;16.70;99.90
43151;DHT22;28755;51.478;5.702;2023-05-10T11:08:17;17.30;99.90
43151;DHT22;28755;51.478;5.702;2023-05-10T11:13:30;18.30;99.90
43151;DHT22;28755;51.478;5.702;2023-05-10T11:15:56;18.70;99.90
43151;DHT22;28755;51.478;5.702;2023-05-10T11:18:29;19.50;99.90
43151;DHT22;28755;51.478;5.702;2023-05-10T11:20:59;19.80;99.90
43151;DHT22;28755;51.478;5.702;2023-05-10T11:26:08;20.70;99.90
43151;DHT22;28755;51.478;5.702;2023-05-10T11:28:41;21.20;99.90
43151;DHT22;28755;51.478;5.702;2023-05-10T11:31:06;20.20;99.90
43151;DHT22;28755;51.478;5.702;2023-05-10T11:33:44;19.50;99.90
43151;DHT22;28755;51.478;5.702;2023-05-10T11:36:23;19.10;99.90
43151;DHT22;28755;51.478;5.702;2023-05-10T11:38:49;18.70;99.90
43151;DHT22;28755;51.478;5.702;2023-05-10T11:41:17;18.30;99.90
43151;DHT22;28755;51.478;5.702;2023-05-10T11:43:46;17.90;99.90
43151;DHT22;28755;51.478;5.702;2023-05-10T11:46:12;17.80;99.90
43151;DHT22;28755;51.478;5.702;2023-05-10T11:48:39;17.90;99.90
43151;DHT22;28755;51.478;5.702;2023-05-10T11:51:07;18.00;99.90
43151;DHT22;28755;51.478;5.702;2023-05-10T11:53:33;18.20;99.90
43151;DHT22;28755;51.478;5.702;2023-05-10T11:56:09;18.30;99.90
43151;DHT22;28755;51.478;5.702;2023-05-10T11:58:36;18.30;99.90
43151;DHT22;28755;51.478;5.702;2023-05-10T12:01:03;18.30;99.90
43151;DHT22;28755;51.478;5.702;2023-05-10T12:03:29;18.30;99.90
43151;DHT22;28755;51.478;5.702;2023-05-10T12:05:56;18.70;99.90
43151;DHT22;28755;51.478;5.702;2023-05-10T12:08:27;19.20;99.90
43151;DHT22;28755;51.478;5.702;2023-05-10T12:11:03;19.30;99.90
43151;DHT22;28755;51.478;5.702;2023-05-10T12:13:29;19.20;99.90
43151;DHT22;28755;51.478;5.702;2023-05-10T12:15:58;19.10;99.90
43151;DHT22;28755;51.478;5.702;2023-05-10T12:18:24;19.00;99.90
43151;DHT22;28755;51.478;5.702;2023-05-10T12:20:52;19.00;99.90
43151;DHT22;28755;51.478;5.702;2023-05-10T12:23:20;18.60;99.90
43151;DHT22;28755;51.478;5.702;2023-05-10T12:25:45;18.40;99.90
43151;DHT22;28755;51.478;5.702;2023-05-10T12:28:11;18.30;99.90
43151;DHT22;28755;51.478;5.702;2023-05-10T12:30:37;18.50;99.90
43151;DHT22;28755;51.478;5.702;2023-05-10T12:33:09;18.30;99.90
43151;DHT22;28755;51.478;5.702;2023-05-10T12:35:44;17.80;99.90
43151;DHT22;28755;51.478;5.702;2023-05-10T12:38:25;17.40;99.90
43151;DHT22;28755;51.478;5.702;2023-05-10T12:40:51;17.00;99.90
43151;DHT22;28755;51.478;5.702;2023-05-10T12:43:17;16.70;99.90
43151;DHT22;28755;51.478;5.702;2023-05-10T12:45:42;16.30;99.90
43151;DHT22;28755;51.478;5.702;2023-05-10T12:48:13;16.00;99.90
43151;DHT22;28755;51.478;5.702;2023-05-10T12:50:38;16.00;99.90
43151;DHT22;28755;51.478;5.702;2023-05-10T12:53:04;16.00;99.90
43151;DHT22;28755;51.478;5.702;2023-05-10T12:55:30;15.80;99.90
43151;DHT22;28755;51.478;5.702;2023-05-10T12:57:55;15.70;99.90
43151;DHT22;28755;51.478;5.702;2023-05-10T13:00:21;15.70;99.90
43151;DHT22;28755;51.478;5.702;2023-05-10T13:02:46;15.70;99.90
43151;DHT22;28755;51.478;5.702;2023-05-10T13:05:12;15.80;99.90
43151;DHT22;28755;51.478;5.702;2023-05-10T13:07:38;15.80;99.90
43151;DHT22;28755;51.478;5.702;2023-05-10T13:10:05;15.90;99.90
43151;DHT22;28755;51.478;5.702;2023-05-10T13:12:31;15.90;99.90
43151;DHT22;28755;51.478;5.702;2023-05-10T13:14:56;15.80;99.90
43151;DHT22;28755;51.478;5.702;2023-05-10T13:17:22;15.80;99.90
43151;DHT22;28755;51.478;5.702;2023-05-10T13:19:48;15.90;99.90
43151;DHT22;28755;51.478;5.702;2023-05-10T13:22:13;15.90;99.90
43151;DHT22;28755;51.478;5.702;2023-05-10T13:24:39;16.10;99.90
43151;DHT22;28755;51.478;5.702;2023-05-10T13:27:04;16.30;99.90
43151;DHT22;28755;51.478;5.702;2023-05-10T13:29:30;16.50;99.90
43151;DHT22;28755;51.478;5.702;2023-05-10T13:31:56;16.80;99.90
43151;DHT22;28755;51.478;5.702;2023-05-10T13:34:21;16.90;99.90
43151;DHT22;28755;51.478;5.702;2023-05-10T13:36:47;16.90;99.90
43151;DHT22;28755;51.478;5.702;2023-05-10T13:39:14;16.90;99.90
43151;DHT22;28755;51.478;5.702;2023-05-10T13:41:39;16.70;99.90
43151;DHT22;28755;51.478;5.702;2023-05-10T13:44:05;16.50;99.90
43151;DHT22;28755;51.478;5.702;2023-05-10T13:46:30;16.40;99.90
43151;DHT22;28755;51.478;5.702;2023-05-10T13:48:56;16.40;99.90
43151;DHT22;28755;51.478;5.702;2023-05-10T13:51:22;16.30;99.90
43151;DHT22;28755;51.478;5.702;2023-05-10T13:53:48;16.30;99.90
43151;DHT22;28755;51.478;5.702;2023-05-10T13:56:14;16.20;99.90
43151;DHT22;28755;51.478;5.702;2023-05-10T13:58:40;16.30;99.90
43151;DHT22;28755;51.478;5.702;2023-05-10T14:01:06;16.30;99.90
43151;DHT22;28755;51.478;5.702;2023-05-10T14:03:32;16.30;99.90
43151;DHT22;28755;51.478;5.702;2023-05-10T14:05:58;16.20;99.90
43151;DHT22;28755;51.478;5.702;2023-05-10T14:08:23;16.10;99.90
43151;DHT22;28755;51.478;5.702;2023-05-10T14:10:49;16.20;99.90
43151;DHT22;28755;51.478;5.702;2023-05-10T14:13:16;16.30;99.90
43151;DHT22;28755;51.478;5.702;2023-05-10T14:15:44;16.30;99.90
43151;DHT22;28755;51.478;5.702;2023-05-10T14:18:09;16.10;99.90
43151;DHT22;28755;51.478;5.702;2023-05-10T14:20:35;15.90;99.90
43151;DHT22;28755;51.478;5.702;2023-05-10T14:23:00;15.90;99.90
43151;DHT22;28755;51.478;5.702;2023-05-10T14:25:26;15.70;99.90
43151;DHT22;28755;51.478;5.702;2023-05-10T14:27:52;15.50;99.90
43151;DHT22;28755;51.478;5.702;2023-05-10T14:30:20;15.50;99.90
43151;DHT22;28755;51.478;5.702;2023-05-10T14:32:45;15.50;99.90
43151;DHT22;28755;51.478;5.702;2023-05-10T14:35:11;15.40;99.90
43151;DHT22;28755;51.478;5.702;2023-05-10T14:37:38;15.30;99.90
43151;DHT22;28755;51.478;5.702;2023-05-10T14:40:04;15.20;99.90
43151;DHT22;28755;51.478;5.702;2023-05-10T14:42:30;15.10;99.90
43151;DHT22;28755;51.478;5.702;2023-05-10T14:44:56;15.00;99.90
43151;DHT22;28755;51.478;5.702;2023-05-10T14:47:22;15.00;99.90
43151;DHT22;28755;51.478;5.702;2023-05-10T14:49:47;14.90;99.90
43151;DHT22;28755;51.478;5.702;2023-05-10T14:52:13;14.90;99.90
43151;DHT22;28755;51.478;5.702;2023-05-10T14:54:39;14.90;99.90
43151;DHT22;28755;51.478;5.702;2023-05-10T14:57:06;14.80;99.90
43151;DHT22;28755;51.478;5.702;2023-05-10T14:59:32;14.90;99.90
43151;DHT22;28755;51.478;5.702;2023-05-10T15:01:57;15.00;99.90
43151;DHT22;28755;51.478;5.702;2023-05-10T15:04:23;15.10;99.90
43151;DHT22;28755;51.478;5.702;2023-05-10T15:06:48;15.20;99.90
43151;DHT22;28755;51.478;5.702;2023-05-10T15:09:14;15.20;99.90
43151;DHT22;28755;51.478;5.702;2023-05-10T15:11:40;15.30;99.90
43151;DHT22;28755;51.478;5.702;2023-05-10T15:14:06;15.50;99.90
43151;DHT22;28755;51.478;5.702;2023-05-10T15:16:32;15.40;99.90
43151;DHT22;28755;51.478;5.702;2023-05-10T15:18:57;15.40;99.90
43151;DHT22;28755;51.478;5.702;2023-05-10T15:21:23;15.30;99.90
43151;DHT22;28755;51.478;5.702;2023-05-10T15:23:48;15.30;99.90
43151;DHT22;28755;51.478;5.702;2023-05-10T15:26:14;15.40;99.90
43151;DHT22;28755;51.478;5.702;2023-05-10T15:28:39;15.30;99.90
43151;DHT22;28755;51.478;5.702;2023-05-10T15:31:05;15.60;99.90
43151;DHT22;28755;51.478;5.702;2023-05-10T15:33:31;15.70;99.90
43151;DHT22;28755;51.478;5.702;2023-05-10T15:35:56;15.40;99.90
43151;DHT22;28755;51.478;5.702;2023-05-10T15:38:22;15.40;99.90
43151;DHT22;28755;51.478;5.702;2023-05-10T15:40:47;15.40;99.90
43151;DHT22;28755;51.478;5.702;2023-05-10T15:43:13;15.40;99.90
43151;DHT22;28755;51.478;5.702;2023-05-10T15:45:39;15.50;99.90
43151;DHT22;28755;51.478;5.702;2023-05-10T15:48:05;15.50;99.90
43151;DHT22;28755;51.478;5.702;2023-05-10T15:50:30;15.50;99.90
43151;DHT22;28755;51.478;5.702;2023-05-10T15:52:56;15.60;99.90
43151;DHT22;28755;51.478;5.702;2023-05-10T15:55:21;15.50;99.90
43151;DHT22;28755;51.478;5.702;2023-05-10T15:57:47;15.50;99.90
43151;DHT22;28755;51.478;5.702;2023-05-10T16:00:13;15.60;99.90
43151;DHT22;28755;51.478;5.702;2023-05-10T16:02:39;15.70;99.90
43151;DHT22;28755;51.478;5.702;2023-05-10T16:05:05;15.70;99.90
43151;DHT22;28755;51.478;5.702;2023-05-10T16:07:32;15.60;99.90
43151;DHT22;28755;51.478;5.702;2023-05-10T16:09:58;15.50;99.90
43151;DHT22;28755;51.478;5.702;2023-05-10T16:12:23;15.40;99.90
43151;DHT22;28755;51.478;5.702;2023-05-10T16:14:49;15.60;99.90